Time;durP1;ratioP1;P1;durP2;ratioP2;P2;SDS_P1;SDS_P2;PMS_P1;PMS_P2;Temp;Humidity;BMP_temperature;BMP_pressure;BME280_temperature;BME280_humidity;BME280_pressure;Samples;Min_cycle;Max_cycle;Signal;HPM_P1;HPM_P2
2022/09/24 00:00:52;;;;;;;;;;;12.50;99.90;;;;;;5039407;28;20279;-68
2022/09/24 00:03:18;;;;;;;;;;;12.50;99.90;;;;;;5038995;28;19965;-68
2022/09/24 00:05:45;;;;;;;;;;;12.50;99.90;;;;;;5038113;28;19980;-68
2022/09/24 00:08:11;;;;;;;;;;;12.50;99.90;;;;;;5037915;28;19917;-68
2022/09/24 00:10:38;;;;;;;;;;;12.50;99.90;;;;;;5037432;28;19920;-68
2022/09/24 00:13:04;;;;;;;;;;;12.50;99.90;;;;;;5037117;28;19959;-68
2022/09/24 00:15:30;;;;;;;;;;;12.50;99.90;;;;;;5038942;28;19963;-68
2022/09/24 00:17:56;;;;;;;;;;;12.50;99.90;;;;;;5038245;28;19916;-68
2022/09/24 00:20:21;;;;;;;;;;;12.50;99.90;;;;;;5047928;28;19986;-68
2022/09/24 00:22:47;;;;;;;;;;;12.50;99.90;;;;;;5042461;28;20372;-68
2022/09/24 00:27:56;;;;;;;;;;;12.50;99.90;;;;;;5037404;28;19931;-68
2022/09/24 00:30:22;;;;;;;;;;;12.40;99.90;;;;;;5038877;28;20019;-68
2022/09/24 00:32:47;;;;;;;;;;;12.40;99.90;;;;;;5038807;28;20036;-68
2022/09/24 00:35:13;;;;;;;;;;;12.40;99.90;;;;;;5042617;28;19920;-68
2022/09/24 00:37:38;;;;;;;;;;;12.40;99.90;;;;;;5038148;28;19924;-68
2022/09/24 00:40:04;;;;;;;;;;;12.40;99.90;;;;;;5041960;28;19912;-68
2022/09/24 00:42:31;;;;;;;;;;;12.40;99.90;;;;;;5040780;28;19923;-68
2022/09/24 00:44:57;;;;;;;;;;;12.40;99.90;;;;;;5044550;28;20410;-68
2022/09/24 00:47:31;;;;;;;;;;;12.40;99.90;;;;;;5042330;28;20023;-68
2022/09/24 00:50:01;;;;;;;;;;;12.40;99.90;;;;;;5042754;28;19932;-68
2022/09/24 00:52:27;;;;;;;;;;;12.40;99.90;;;;;;5046625;28;19913;-68
2022/09/24 00:54:52;;;;;;;;;;;12.40;99.90;;;;;;5040852;28;19917;-68
2022/09/24 00:57:18;;;;;;;;;;;12.30;99.90;;;;;;5042666;28;20139;-68
2022/09/24 00:59:44;;;;;;;;;;;12.30;99.90;;;;;;5041929;28;19917;-68
2022/09/24 01:02:09;;;;;;;;;;;12.30;99.90;;;;;;5042536;28;20230;-68
2022/09/24 01:04:35;;;;;;;;;;;12.30;99.90;;;;;;5040741;28;19952;-68
2022/09/24 01:07:01;;;;;;;;;;;12.30;99.90;;;;;;5041676;28;19951;-68
2022/09/24 01:09:26;;;;;;;;;;;12.30;99.90;;;;;;5042924;28;19917;-68
2022/09/24 01:12:01;;;;;;;;;;;12.30;99.90;;;;;;5041020;28;19916;-68
2022/09/24 01:14:27;;;;;;;;;;;12.20;99.90;;;;;;5031367;28;19920;-68
2022/09/24 01:16:58;;;;;;;;;;;12.20;99.90;;;;;;5040107;28;20081;-68
2022/09/24 01:19:39;;;;;;;;;;;12.20;99.90;;;;;;5041217;28;19928;-68
2022/09/24 01:22:19;;;;;;;;;;;12.10;99.90;;;;;;5040273;28;20152;-68
2022/09/24 01:24:51;;;;;;;;;;;12.10;99.90;;;;;;5040213;28;19924;-68
2022/09/24 01:27:23;;;;;;;;;;;12.10;99.90;;;;;;5041303;28;20000;-68
2022/09/24 01:29:52;;;;;;;;;;;12.10;99.90;;;;;;5042553;28;19964;-68
2022/09/24 01:32:20;;;;;;;;;;;12.00;99.90;;;;;;5042783;28;19921;-68
2022/09/24 01:34:51;;;;;;;;;;;12.00;99.90;;;;;;5040232;28;20380;-68
2022/09/24 01:37:21;;;;;;;;;;;12.00;99.90;;;;;;5042329;28;20001;-68
2022/09/24 01:39:47;;;;;;;;;;;11.90;99.90;;;;;;5041389;28;19976;-68
2022/09/24 01:42:13;;;;;;;;;;;11.90;99.90;;;;;;5041313;28;19924;-68
2022/09/24 01:44:43;;;;;;;;;;;11.90;99.90;;;;;;5040136;28;19916;-68
2022/09/24 01:47:11;;;;;;;;;;;11.80;99.90;;;;;;5042019;28;19925;-68
2022/09/24 01:49:37;;;;;;;;;;;11.80;99.90;;;;;;5042235;28;20023;-68
2022/09/24 01:52:05;;;;;;;;;;;11.80;99.90;;;;;;5032119;28;20011;-68
2022/09/24 01:54:34;;;;;;;;;;;11.80;99.90;;;;;;5035803;28;19979;-68
2022/09/24 01:57:14;;;;;;;;;;;11.70;99.90;;;;;;5036224;28;20378;-68
2022/09/24 01:59:43;;;;;;;;;;;11.80;99.90;;;;;;5034371;28;19939;-68
2022/09/24 02:02:13;;;;;;;;;;;11.80;99.90;;;;;;5022876;28;19971;-68
2022/09/24 02:04:41;;;;;;;;;;;11.80;99.90;;;;;;5029952;28;20414;-67
2022/09/24 02:07:13;;;;;;;;;;;11.70;99.90;;;;;;5039016;28;20112;-68
2022/09/24 02:09:40;;;;;;;;;;;11.70;99.90;;;;;;5039992;28;19917;-68
2022/09/24 02:12:10;;;;;;;;;;;11.70;99.90;;;;;;5039888;28;19924;-68
2022/09/24 02:14:38;;;;;;;;;;;11.70;99.90;;;;;;5016036;28;19924;-67
2022/09/24 02:17:05;;;;;;;;;;;11.70;99.90;;;;;;5038695;28;19923;-68
2022/09/24 02:19:33;;;;;;;;;;;11.60;99.90;;;;;;5036480;28;20392;-68
2022/09/24 02:21:59;;;;;;;;;;;11.60;99.90;;;;;;5039340;28;19997;-68
2022/09/24 02:24:29;;;;;;;;;;;11.60;99.90;;;;;;5038088;28;20384;-68
2022/09/24 02:26:55;;;;;;;;;;;11.50;99.90;;;;;;5039242;28;19927;-68
2022/09/24 02:29:20;;;;;;;;;;;11.60;99.90;;;;;;5037868;28;20011;-67
2022/09/24 02:31:48;;;;;;;;;;;11.50;99.90;;;;;;5037066;28;20339;-68
2022/09/24 02:34:22;;;;;;;;;;;11.50;99.90;;;;;;5029219;28;19951;-68
2022/09/24 02:36:48;;;;;;;;;;;11.50;99.90;;;;;;5020211;28;19949;-68
2022/09/24 02:39:16;;;;;;;;;;;11.40;99.90;;;;;;5034662;28;19924;-68
2022/09/24 02:41:46;;;;;;;;;;;11.30;99.90;;;;;;5037203;28;19916;-68
2022/09/24 02:44:11;;;;;;;;;;;11.30;99.90;;;;;;5032716;28;20366;-68
2022/09/24 02:46:40;;;;;;;;;;;11.20;99.90;;;;;;5036001;28;19921;-68
2022/09/24 02:49:06;;;;;;;;;;;11.20;99.90;;;;;;5017080;28;19921;-67
2022/09/24 02:51:31;;;;;;;;;;;11.10;99.90;;;;;;5033063;28;19920;-68
2022/09/24 02:53:57;;;;;;;;;;;11.10;99.90;;;;;;5038791;28;20419;-68
2022/09/24 02:56:22;;;;;;;;;;;11.00;99.90;;;;;;5039907;28;19917;-68
2022/09/24 02:58:48;;;;;;;;;;;10.90;99.90;;;;;;5037363;28;19924;-68
2022/09/24 03:01:13;;;;;;;;;;;11.00;99.90;;;;;;5039248;28;20175;-67
2022/09/24 03:03:39;;;;;;;;;;;10.90;99.90;;;;;;5038422;28;20007;-68
2022/09/24 03:06:05;;;;;;;;;;;10.90;99.90;;;;;;5039696;28;19924;-68
2022/09/24 03:08:31;;;;;;;;;;;10.80;99.90;;;;;;5039080;28;20388;-68
2022/09/24 03:10:56;;;;;;;;;;;10.80;99.90;;;;;;5040771;28;19921;-67
2022/09/24 03:13:22;;;;;;;;;;;10.80;99.90;;;;;;5036689;28;20421;-67
2022/09/24 03:15:47;;;;;;;;;;;10.80;99.90;;;;;;5033488;28;19924;-68
2022/09/24 03:18:13;;;;;;;;;;;10.80;99.90;;;;;;5039129;28;19920;-67
2022/09/24 03:20:39;;;;;;;;;;;10.80;99.90;;;;;;5039148;28;19989;-67
2022/09/24 03:23:04;;;;;;;;;;;10.80;99.90;;;;;;5038253;28;20023;-67
2022/09/24 03:25:30;;;;;;;;;;;10.80;99.90;;;;;;5037447;28;20249;-67
2022/09/24 03:27:55;;;;;;;;;;;10.80;99.90;;;;;;5034385;28;20190;-67
2022/09/24 03:33:05;;;;;;;;;;;10.80;99.90;;;;;;5025208;28;19979;-67
2022/09/24 03:35:30;;;;;;;;;;;10.80;99.90;;;;;;5038945;28;19975;-67
2022/09/24 03:37:56;;;;;;;;;;;10.80;99.90;;;;;;5035042;28;19928;-67
2022/09/24 03:40:21;;;;;;;;;;;10.70;99.90;;;;;;5038880;28;20423;-67
2022/09/24 03:42:47;;;;;;;;;;;10.70;99.90;;;;;;5038610;28;19989;-67
2022/09/24 03:45:12;;;;;;;;;;;10.60;99.90;;;;;;5033811;28;19917;-67
2022/09/24 03:47:39;;;;;;;;;;;10.60;99.90;;;;;;5039624;28;19925;-67
2022/09/24 03:50:05;;;;;;;;;;;10.60;99.90;;;;;;5038381;28;19924;-67
2022/09/24 03:52:30;;;;;;;;;;;10.50;99.90;;;;;;5038425;28;19917;-67
2022/09/24 03:54:55;;;;;;;;;;;10.50;99.90;;;;;;5036670;28;19959;-67
2022/09/24 03:57:21;;;;;;;;;;;10.50;99.90;;;;;;5038867;28;20332;-67
2022/09/24 03:59:46;;;;;;;;;;;10.40;99.90;;;;;;5035595;28;19921;-67
2022/09/24 04:02:12;;;;;;;;;;;10.40;99.90;;;;;;5040046;28;19916;-67
2022/09/24 04:04:38;;;;;;;;;;;10.30;99.90;;;;;;5037800;28;20239;-67
2022/09/24 04:07:03;;;;;;;;;;;10.40;99.90;;;;;;5035174;28;19943;-67
2022/09/24 04:09:29;;;;;;;;;;;10.30;99.90;;;;;;5037152;28;20256;-67
2022/09/24 04:11:55;;;;;;;;;;;10.30;99.90;;;;;;5036094;28;19970;-67
2022/09/24 04:14:20;;;;;;;;;;;10.30;99.90;;;;;;5034703;28;19917;-67
2022/09/24 04:16:46;;;;;;;;;;;10.30;99.90;;;;;;5036234;28;19921;-67
2022/09/24 04:19:12;;;;;;;;;;;10.30;99.90;;;;;;5033940;28;19923;-67
2022/09/24 04:21:38;;;;;;;;;;;10.40;99.90;;;;;;5035756;28;19964;-67
2022/09/24 04:24:04;;;;;;;;;;;10.30;99.90;;;;;;5037802;28;20316;-67
2022/09/24 04:26:29;;;;;;;;;;;10.40;99.90;;;;;;5034159;28;20159;-67
2022/09/24 04:28:58;;;;;;;;;;;10.30;99.90;;;;;;5035866;28;19963;-67
2022/09/24 04:31:25;;;;;;;;;;;10.30;99.90;;;;;;5032660;28;19936;-67
2022/09/24 04:33:51;;;;;;;;;;;10.30;99.90;;;;;;5030260;28;19951;-67
2022/09/24 04:36:16;;;;;;;;;;;10.30;99.90;;;;;;5035436;28;19952;-67
2022/09/24 04:38:42;;;;;;;;;;;10.30;99.90;;;;;;5016617;28;19917;-67
2022/09/24 04:41:08;;;;;;;;;;;10.30;99.90;;;;;;5036495;28;19962;-67
2022/09/24 04:43:35;;;;;;;;;;;10.20;99.90;;;;;;5035503;28;20387;-67
2022/09/24 04:46:01;;;;;;;;;;;10.20;99.90;;;;;;5036195;28;19917;-67
2022/09/24 04:48:27;;;;;;;;;;;10.10;99.90;;;;;;5038169;28;19920;-67
2022/09/24 04:50:52;;;;;;;;;;;10.10;99.90;;;;;;5036208;28;19917;-67
2022/09/24 04:53:18;;;;;;;;;;;10.10;99.90;;;;;;5037492;28;20358;-67
2022/09/24 04:55:43;;;;;;;;;;;10.10;99.90;;;;;;5031836;28;20167;-67
2022/09/24 04:58:09;;;;;;;;;;;10.10;99.90;;;;;;5037287;28;20016;-67
2022/09/24 05:00:35;;;;;;;;;;;10.10;99.90;;;;;;5035999;28;19917;-67
2022/09/24 05:03:03;;;;;;;;;;;10.10;99.90;;;;;;5034584;28;20304;-68
2022/09/24 05:05:30;;;;;;;;;;;10.00;99.90;;;;;;5033281;28;20376;-68
2022/09/24 05:07:57;;;;;;;;;;;10.00;99.90;;;;;;5033989;28;20226;-68
2022/09/24 05:10:23;;;;;;;;;;;9.90;99.90;;;;;;5033131;28;19939;-68
2022/09/24 05:12:49;;;;;;;;;;;9.90;99.90;;;;;;5036047;28;20362;-67
2022/09/24 05:15:14;;;;;;;;;;;10.00;99.90;;;;;;5033693;28;19916;-67
2022/09/24 05:17:40;;;;;;;;;;;9.90;99.90;;;;;;5036667;28;20379;-67
2022/09/24 05:20:07;;;;;;;;;;;10.00;99.90;;;;;;5039266;28;19932;-67
2022/09/24 05:22:32;;;;;;;;;;;10.00;99.90;;;;;;5040219;28;19928;-67
2022/09/24 05:24:58;;;;;;;;;;;10.10;99.90;;;;;;5019197;28;20873;-68
2022/09/24 05:27:23;;;;;;;;;;;10.20;99.90;;;;;;5040699;28;19929;-67
2022/09/24 05:29:49;;;;;;;;;;;10.40;99.90;;;;;;5038815;28;20002;-67
2022/09/24 05:32:16;;;;;;;;;;;10.50;99.90;;;;;;5037011;28;19932;-67
2022/09/24 05:34:42;;;;;;;;;;;10.60;99.90;;;;;;5035058;28;19965;-68
2022/09/24 05:37:08;;;;;;;;;;;10.70;99.90;;;;;;5038211;28;20402;-67
2022/09/24 05:39:33;;;;;;;;;;;10.70;99.90;;;;;;5039620;28;19955;-67
2022/09/24 05:42:00;;;;;;;;;;;10.70;99.90;;;;;;5041759;28;20062;-67
2022/09/24 05:44:26;;;;;;;;;;;10.70;99.90;;;;;;5036552;28;20261;-68
2022/09/24 05:46:51;;;;;;;;;;;10.70;99.90;;;;;;5037549;28;20469;-67
2022/09/24 05:49:17;;;;;;;;;;;10.60;99.90;;;;;;5040540;28;20099;-67
2022/09/24 05:51:43;;;;;;;;;;;10.50;99.90;;;;;;5040850;28;20564;-67
2022/09/24 05:54:10;;;;;;;;;;;10.50;99.90;;;;;;5038830;28;20378;-68
2022/09/24 05:56:36;;;;;;;;;;;10.40;99.90;;;;;;5039183;28;19917;-67
2022/09/24 05:59:01;;;;;;;;;;;10.40;99.90;;;;;;5036210;28;20346;-67
2022/09/24 06:01:30;;;;;;;;;;;10.50;99.90;;;;;;5035346;28;19941;-67
2022/09/24 06:03:56;;;;;;;;;;;10.50;99.90;;;;;;5039274;28;19917;-67
2022/09/24 06:06:22;;;;;;;;;;;10.60;99.90;;;;;;5040712;28;19993;-67
2022/09/24 06:08:47;;;;;;;;;;;10.60;99.90;;;;;;5039241;28;19928;-68
2022/09/24 06:11:13;;;;;;;;;;;10.80;99.90;;;;;;5037465;28;19945;-68
2022/09/24 06:13:38;;;;;;;;;;;10.90;99.90;;;;;;5033761;28;19920;-68
2022/09/24 06:16:06;;;;;;;;;;;10.90;99.90;;;;;;5043850;28;19917;-67
2022/09/24 06:18:32;;;;;;;;;;;10.90;99.90;;;;;;5032498;28;20372;-67
2022/09/24 06:21:02;;;;;;;;;;;10.90;99.90;;;;;;5031016;28;19917;-68
2022/09/24 06:23:29;;;;;;;;;;;10.90;99.90;;;;;;5031803;28;19916;-67
2022/09/24 06:25:55;;;;;;;;;;;11.00;99.90;;;;;;5034023;28;20358;-68
2022/09/24 06:28:21;;;;;;;;;;;11.10;99.90;;;;;;5030219;28;20326;-68
2022/09/24 06:30:46;;;;;;;;;;;11.20;99.90;;;;;;5017832;28;19925;-68
2022/09/24 06:33:13;;;;;;;;;;;11.20;99.90;;;;;;5036824;28;19920;-68
2022/09/24 06:35:42;;;;;;;;;;;11.40;99.90;;;;;;5033183;28;19927;-68
2022/09/24 06:38:09;;;;;;;;;;;11.50;99.90;;;;;;5035703;28;19928;-67
2022/09/24 06:40:35;;;;;;;;;;;11.70;99.90;;;;;;5036307;28;19992;-68
2022/09/24 06:43:00;;;;;;;;;;;11.90;99.90;;;;;;5032919;28;19916;-67
2022/09/24 06:45:27;;;;;;;;;;;12.10;99.90;;;;;;5030834;28;20257;-68
2022/09/24 06:47:52;;;;;;;;;;;12.20;99.90;;;;;;5028679;28;19925;-68
2022/09/24 06:50:17;;;;;;;;;;;12.30;99.90;;;;;;5028145;28;19917;-68
2022/09/24 06:52:43;;;;;;;;;;;12.40;99.90;;;;;;5030154;28;19916;-68
2022/09/24 06:55:08;;;;;;;;;;;12.50;99.90;;;;;;5033076;28;20423;-67
2022/09/24 06:57:34;;;;;;;;;;;12.60;99.90;;;;;;5027455;28;19966;-68
2022/09/24 06:59:59;;;;;;;;;;;12.70;99.90;;;;;;5030157;28;20023;-68
2022/09/24 07:02:25;;;;;;;;;;;12.70;99.90;;;;;;5027441;28;20403;-68
2022/09/24 07:04:50;;;;;;;;;;;12.90;99.90;;;;;;5024207;28;19929;-67
2022/09/24 07:07:28;;;;;;;;;;;13.00;99.90;;;;;;5028920;28;19945;-68
2022/09/24 07:09:54;;;;;;;;;;;13.00;99.90;;;;;;5032334;28;20119;-68
2022/09/24 07:12:19;;;;;;;;;;;13.10;99.90;;;;;;5038231;28;20016;-68
2022/09/24 07:14:45;;;;;;;;;;;13.20;99.90;;;;;;5035551;28;20011;-68
2022/09/24 07:17:10;;;;;;;;;;;13.30;99.90;;;;;;5036302;28;19975;-68
2022/09/24 07:19:37;;;;;;;;;;;13.30;99.90;;;;;;5035419;28;19999;-68
2022/09/24 07:22:03;;;;;;;;;;;13.40;99.90;;;;;;5039975;28;19920;-68
2022/09/24 07:24:28;;;;;;;;;;;13.40;99.90;;;;;;5037626;28;20387;-68
2022/09/24 07:26:53;;;;;;;;;;;13.40;99.90;;;;;;5035838;28;19931;-69
2022/09/24 07:29:19;;;;;;;;;;;13.50;99.90;;;;;;5007801;28;20173;-68
2022/09/24 07:31:44;;;;;;;;;;;13.50;99.90;;;;;;5036610;28;19917;-68
2022/09/24 07:34:10;;;;;;;;;;;13.60;99.90;;;;;;5023901;28;20339;-68
2022/09/24 07:36:35;;;;;;;;;;;13.70;99.90;;;;;;5011147;28;19923;-67
2022/09/24 07:39:01;;;;;;;;;;;13.70;99.90;;;;;;5024513;28;19923;-68
2022/09/24 07:41:26;;;;;;;;;;;13.70;99.90;;;;;;5033386;28;19999;-68
2022/09/24 07:43:54;;;;;;;;;;;13.90;99.90;;;;;;5024557;28;20105;-68
2022/09/24 07:46:20;;;;;;;;;;;14.00;99.90;;;;;;5037765;28;19924;-68
2022/09/24 07:48:47;;;;;;;;;;;14.10;99.90;;;;;;5004636;28;19961;-68
2022/09/24 07:51:12;;;;;;;;;;;14.20;99.90;;;;;;5029594;28;19974;-67
2022/09/24 07:53:38;;;;;;;;;;;14.30;99.90;;;;;;5026671;28;19925;-68
2022/09/24 07:56:03;;;;;;;;;;;14.20;99.90;;;;;;5027550;28;19918;-68
2022/09/24 07:58:29;;;;;;;;;;;14.40;99.90;;;;;;5023655;28;19921;-67
2022/09/24 08:00:59;;;;;;;;;;;14.60;99.90;;;;;;5024394;28;19970;-68
2022/09/24 08:03:25;;;;;;;;;;;14.90;99.90;;;;;;5043584;28;19926;-68
2022/09/24 08:05:50;;;;;;;;;;;15.10;99.90;;;;;;5026137;28;19925;-68
2022/09/24 08:08:18;;;;;;;;;;;15.60;99.90;;;;;;5035217;28;20330;-68
2022/09/24 08:10:43;;;;;;;;;;;15.80;99.90;;;;;;5031523;28;19916;-68
2022/09/24 08:13:09;;;;;;;;;;;16.30;99.90;;;;;;5038217;28;19921;-68
2022/09/24 08:15:35;;;;;;;;;;;16.60;99.90;;;;;;5031915;28;19916;-67
2022/09/24 08:18:02;;;;;;;;;;;17.20;99.90;;;;;;5031461;28;20038;-68
2022/09/24 08:20:28;;;;;;;;;;;17.40;99.90;;;;;;5033782;28;19971;-68
2022/09/24 08:22:53;;;;;;;;;;;17.90;99.90;;;;;;5034561;28;19917;-68
2022/09/24 08:25:19;;;;;;;;;;;18.50;99.90;;;;;;5035593;28;20261;-68
2022/09/24 08:27:44;;;;;;;;;;;19.00;99.90;;;;;;5017481;28;19936;-67
2022/09/24 08:30:10;;;;;;;;;;;18.70;99.90;;;;;;5035101;28;19916;-68
2022/09/24 08:32:36;;;;;;;;;;;19.40;99.90;;;;;;5028981;28;19940;-68
2022/09/24 08:35:01;;;;;;;;;;;19.80;99.90;;;;;;5032793;28;19917;-68
2022/09/24 08:37:27;;;;;;;;;;;20.10;99.90;;;;;;5028564;28;19917;-68
2022/09/24 08:39:53;;;;;;;;;;;20.60;99.90;;;;;;5032436;28;20443;-68
2022/09/24 08:42:21;;;;;;;;;;;21.20;99.90;;;;;;5028991;28;20083;-68
2022/09/24 08:47:37;;;;;;;;;;;21.30;99.90;;;;;;5026993;28;19932;-68
2022/09/24 08:50:08;;;;;;;;;;;21.80;99.90;;;;;;5033605;28;19917;-68
2022/09/24 08:52:40;;;;;;;;;;;22.00;98.70;;;;;;5018477;28;19963;-68
2022/09/24 08:55:09;;;;;;;;;;;22.60;93.90;;;;;;5020565;28;19913;-68
2022/09/24 08:57:45;;;;;;;;;;;22.90;95.00;;;;;;5022183;28;20555;-68
2022/09/24 09:00:14;;;;;;;;;;;23.20;91.00;;;;;;5039814;28;19936;-68
2022/09/24 09:02:39;;;;;;;;;;;22.90;92.70;;;;;;5041099;28;19917;-68
2022/09/24 09:05:15;;;;;;;;;;;22.30;91.50;;;;;;5040537;28;19935;-68
2022/09/24 09:07:48;;;;;;;;;;;22.00;96.60;;;;;;5021553;28;19932;-69
2022/09/24 09:10:16;;;;;;;;;;;22.00;97.20;;;;;;5021685;28;20126;-68
2022/09/24 09:12:47;;;;;;;;;;;22.10;96.00;;;;;;5022411;28;19913;-68
2022/09/24 09:15:23;;;;;;;;;;;22.20;95.00;;;;;;5033962;28;19923;-68
2022/09/24 09:17:51;;;;;;;;;;;22.70;94.50;;;;;;5038037;28;19968;-68
2022/09/24 09:20:18;;;;;;;;;;;23.40;94.10;;;;;;5040018;28;20018;-69
2022/09/24 09:22:46;;;;;;;;;;;24.20;89.30;;;;;;5025258;28;19923;-68
2022/09/24 09:25:18;;;;;;;;;;;23.40;86.50;;;;;;5040836;28;20108;-68
2022/09/24 09:27:45;;;;;;;;;;;22.20;91.30;;;;;;5039659;28;19935;-68
2022/09/24 09:30:12;;;;;;;;;;;22.10;94.90;;;;;;5039511;28;20388;-68
2022/09/24 09:32:47;;;;;;;;;;;22.50;92.80;;;;;;5041290;28;20418;-69
2022/09/24 09:35:12;;;;;;;;;;;22.70;90.30;;;;;;5040906;28;19921;-67
2022/09/24 09:37:50;;;;;;;;;;;23.10;91.30;;;;;;5041145;28;19924;-68
2022/09/24 09:40:21;;;;;;;;;;;23.10;90.00;;;;;;5041481;28;19917;-68
2022/09/24 09:42:47;;;;;;;;;;;22.70;91.60;;;;;;5040757;28;20681;-68
2022/09/24 09:45:24;;;;;;;;;;;22.30;93.90;;;;;;5042206;28;20104;-69
2022/09/24 09:47:54;;;;;;;;;;;21.80;92.30;;;;;;5041478;28;19962;-68
2022/09/24 09:50:27;;;;;;;;;;;21.40;97.20;;;;;;5038873;28;19913;-68
2022/09/24 09:52:54;;;;;;;;;;;21.10;97.80;;;;;;5040566;28;20344;-68
2022/09/24 09:55:28;;;;;;;;;;;21.30;99.20;;;;;;5042816;28;20237;-68
2022/09/24 09:58:14;;;;;;;;;;;22.10;93.40;;;;;;5040670;28;20150;-68
2022/09/24 10:00:40;;;;;;;;;;;23.10;89.30;;;;;;5013827;28;19979;-68
2022/09/24 10:03:06;;;;;;;;;;;23.20;92.40;;;;;;5034936;28;20104;-68
2022/09/24 10:05:31;;;;;;;;;;;24.40;86.30;;;;;;5037006;28;20039;-68
2022/09/24 10:07:57;;;;;;;;;;;25.10;83.60;;;;;;5035717;28;20337;-68
2022/09/24 10:10:24;;;;;;;;;;;26.10;87.10;;;;;;5041490;28;19969;-69
2022/09/24 10:13:11;;;;;;;;;;;26.60;74.90;;;;;;5038373;28;19923;-68
2022/09/24 10:15:56;;;;;;;;;;;27.30;72.90;;;;;;5029375;28;19978;-68
2022/09/24 10:18:30;;;;;;;;;;;27.90;70.90;;;;;;5036269;28;19924;-68
2022/09/24 10:20:56;;;;;;;;;;;28.10;65.20;;;;;;5036686;28;20023;-68
2022/09/24 10:23:29;;;;;;;;;;;28.00;72.40;;;;;;5035960;28;20015;-68
2022/09/24 10:25:59;;;;;;;;;;;27.90;66.40;;;;;;5032114;28;19916;-68
2022/09/24 10:31:11;;;;;;;;;;;27.10;67.30;;;;;;5031214;28;20563;-68
2022/09/24 10:33:37;;;;;;;;;;;27.10;73.00;;;;;;5013825;28;19921;-68
2022/09/24 10:36:07;;;;;;;;;;;27.60;64.00;;;;;;5035767;28;20018;-68
2022/09/24 10:38:32;;;;;;;;;;;27.20;69.10;;;;;;5034737;28;20361;-68
2022/09/24 10:41:00;;;;;;;;;;;27.30;68.20;;;;;;5036833;28;20023;-68
2022/09/24 10:43:25;;;;;;;;;;;27.70;68.10;;;;;;5036757;28;19982;-68
2022/09/24 10:46:03;;;;;;;;;;;27.70;66.50;;;;;;5032170;28;19924;-68
2022/09/24 10:48:31;;;;;;;;;;;26.90;64.40;;;;;;5035648;28;19966;-68
2022/09/24 10:51:05;;;;;;;;;;;26.50;64.10;;;;;;5040409;28;19916;-68
2022/09/24 10:53:38;;;;;;;;;;;26.20;65.00;;;;;;5035382;28;20367;-68
2022/09/24 10:56:10;;;;;;;;;;;25.60;69.60;;;;;;5030742;28;20280;-68
2022/09/24 10:58:39;;;;;;;;;;;25.60;69.50;;;;;;5035351;28;20138;-68
2022/09/24 11:01:10;;;;;;;;;;;25.00;69.20;;;;;;5028754;28;19999;-68
2022/09/24 11:03:38;;;;;;;;;;;24.80;69.50;;;;;;5029304;28;19921;-68
2022/09/24 11:06:17;;;;;;;;;;;24.30;76.10;;;;;;5029151;28;19920;-68
2022/09/24 11:08:55;;;;;;;;;;;24.00;74.10;;;;;;5031869;28;20312;-68
2022/09/24 11:11:40;;;;;;;;;;;23.70;73.60;;;;;;5032591;28;20275;-68
2022/09/24 11:14:25;;;;;;;;;;;23.50;77.20;;;;;;5034958;28;19979;-68
2022/09/24 11:17:06;;;;;;;;;;;22.90;83.30;;;;;;5032570;28;20020;-68
2022/09/24 11:19:50;;;;;;;;;;;22.50;82.00;;;;;;5026714;28;19924;-68
2022/09/24 11:22:34;;;;;;;;;;;22.10;84.20;;;;;;5029745;28;19932;-68
2022/09/24 11:25:12;;;;;;;;;;;21.30;93.50;;;;;;5027842;28;19978;-68
2022/09/24 11:27:37;;;;;;;;;;;20.80;95.90;;;;;;5030472;28;19980;-67
2022/09/24 11:30:09;;;;;;;;;;;20.30;94.50;;;;;;5023726;28;19917;-68
2022/09/24 11:32:34;;;;;;;;;;;20.10;99.90;;;;;;5022040;28;19917;-67
2022/09/24 11:35:02;;;;;;;;;;;20.00;99.00;;;;;;5027655;28;20382;-68
2022/09/24 11:37:38;;;;;;;;;;;20.00;99.90;;;;;;5025587;28;20299;-67
2022/09/24 11:40:06;;;;;;;;;;;20.20;99.90;;;;;;5029262;28;19991;-68
2022/09/24 11:42:32;;;;;;;;;;;20.00;99.90;;;;;;5031599;28;19978;-67
2022/09/24 11:45:00;;;;;;;;;;;19.80;99.90;;;;;;5029310;28;19921;-68
2022/09/24 11:47:35;;;;;;;;;;;19.80;99.80;;;;;;5030482;28;20318;-68
2022/09/24 11:50:00;;;;;;;;;;;19.70;99.90;;;;;;5022465;28;21399;-68
2022/09/24 11:53:05;;;;;;;;;;;19.80;99.90;;;;;;5029083;28;19928;-68
2022/09/24 11:55:34;;;;;;;;;;;19.70;99.90;;;;;;4947339;28;19929;-68
2022/09/24 11:57:59;;;;;;;;;;;19.80;99.90;;;;;;4946316;28;19964;-68
2022/09/24 12:00:27;;;;;;;;;;;20.10;99.90;;;;;;4984181;28;20017;-68
2022/09/24 12:03:00;;;;;;;;;;;20.20;99.90;;;;;;5013187;28;19970;-68
2022/09/24 12:05:25;;;;;;;;;;;20.30;99.90;;;;;;5028673;28;20292;-67
2022/09/24 12:08:17;;;;;;;;;;;20.30;98.80;;;;;;5022004;28;19916;-67
2022/09/24 12:10:43;;;;;;;;;;;20.20;99.90;;;;;;5025702;28;19917;-67
2022/09/24 12:13:17;;;;;;;;;;;20.40;99.90;;;;;;5032376;28;19989;-67
2022/09/24 12:15:48;;;;;;;;;;;20.50;99.90;;;;;;5029521;28;19916;-71
2022/09/24 12:18:16;;;;;;;;;;;20.60;96.20;;;;;;5037854;28;19932;-71
2022/09/24 12:20:50;;;;;;;;;;;20.60;95.80;;;;;;5033699;28;20030;-72
2022/09/24 12:23:18;;;;;;;;;;;20.80;94.00;;;;;;5045288;28;19923;-71
2022/09/24 12:25:45;;;;;;;;;;;21.20;95.90;;;;;;5033802;28;19916;-72
2022/09/24 12:28:12;;;;;;;;;;;21.70;99.90;;;;;;5038912;28;19917;-71
2022/09/24 12:33:48;;;;;;;;;;;22.10;98.70;;;;;;5041428;28;19923;-72
2022/09/24 12:36:19;;;;;;;;;;;22.50;91.30;;;;;;5033362;28;19917;-71
2022/09/24 12:38:49;;;;;;;;;;;22.30;94.40;;;;;;5040016;28;19928;-72
2022/09/24 12:41:21;;;;;;;;;;;22.10;91.90;;;;;;5038048;28;19921;-72
2022/09/24 12:43:57;;;;;;;;;;;21.90;92.50;;;;;;5037869;28;20071;-71
2022/09/24 12:46:26;;;;;;;;;;;21.90;93.70;;;;;;5039893;28;19935;-71
2022/09/24 12:48:53;;;;;;;;;;;21.90;91.80;;;;;;5045993;28;19916;-70
2022/09/24 12:51:21;;;;;;;;;;;21.90;95.90;;;;;;5041169;28;19924;-70
2022/09/24 12:53:54;;;;;;;;;;;21.80;93.20;;;;;;5021389;28;19945;-70
2022/09/24 12:56:23;;;;;;;;;;;21.60;93.70;;;;;;5044903;28;19970;-71
2022/09/24 12:58:48;;;;;;;;;;;21.40;95.70;;;;;;5027224;28;20008;-71
2022/09/24 13:01:34;;;;;;;;;;;21.50;96.70;;;;;;5031279;28;20011;-71
2022/09/24 13:04:24;;;;;;;;;;;21.20;95.60;;;;;;5030190;28;19937;-71
2022/09/24 13:06:49;;;;;;;;;;;20.70;97.50;;;;;;5030446;28;19947;-70
2022/09/24 13:09:33;;;;;;;;;;;20.30;99.20;;;;;;5038205;28;20334;-71
2022/09/24 13:12:14;;;;;;;;;;;20.20;97.90;;;;;;5026313;28;19921;-70
2022/09/24 13:14:41;;;;;;;;;;;20.30;93.60;;;;;;5028037;28;20732;-70
2022/09/24 13:17:07;;;;;;;;;;;20.60;99.90;;;;;;5007895;28;19975;-71
2022/09/24 13:19:40;;;;;;;;;;;20.70;94.90;;;;;;5009740;28;19916;-72
2022/09/24 13:22:16;;;;;;;;;;;20.60;97.20;;;;;;5030930;28;20295;-72
2022/09/24 13:24:46;;;;;;;;;;;20.80;99.90;;;;;;5042402;28;19968;-71
2022/09/24 13:27:20;;;;;;;;;;;20.90;94.50;;;;;;5044218;28;19917;-71
2022/09/24 13:29:47;;;;;;;;;;;20.90;97.20;;;;;;5044833;28;20325;-71
2022/09/24 13:32:17;;;;;;;;;;;21.20;97.70;;;;;;5048801;28;20177;-72
2022/09/24 13:34:44;;;;;;;;;;;21.50;95.10;;;;;;5025492;28;19917;-72
2022/09/24 13:37:33;;;;;;;;;;;21.80;99.90;;;;;;5039264;28;19928;-72
2022/09/24 13:40:02;;;;;;;;;;;21.60;92.30;;;;;;5040002;28;20409;-72
2022/09/24 13:42:37;;;;;;;;;;;21.50;86.50;;;;;;5038144;28;19921;-71
2022/09/24 13:45:05;;;;;;;;;;;21.30;97.70;;;;;;5039793;28;19916;-72
2022/09/24 13:47:48;;;;;;;;;;;21.00;90.20;;;;;;5042034;28;19967;-67
2022/09/24 13:50:16;;;;;;;;;;;20.90;92.60;;;;;;5038518;28;19923;-68
2022/09/24 13:52:44;;;;;;;;;;;20.70;90.40;;;;;;5039058;28;19917;-67
2022/09/24 13:55:16;;;;;;;;;;;20.50;90.90;;;;;;5008843;28;19921;-67
2022/09/24 13:57:42;;;;;;;;;;;20.40;99.80;;;;;;5036848;28;19932;-67
2022/09/24 14:00:22;;;;;;;;;;;20.30;93.90;;;;;;5037425;28;19921;-67
2022/09/24 14:02:53;;;;;;;;;;;20.60;97.40;;;;;;5039889;28;20020;-67
2022/09/24 14:05:20;;;;;;;;;;;20.70;90.50;;;;;;5034437;28;19925;-67
2022/09/24 14:07:57;;;;;;;;;;;20.60;92.10;;;;;;5036101;28;19964;-68
2022/09/24 14:10:24;;;;;;;;;;;20.60;92.50;;;;;;5036638;28;20290;-67
2022/09/24 14:13:21;;;;;;;;;;;20.60;93.80;;;;;;5036652;28;19920;-67
2022/09/24 14:15:55;;;;;;;;;;;20.60;93.40;;;;;;5010960;28;20232;-67
2022/09/24 14:18:20;;;;;;;;;;;20.40;89.60;;;;;;5033996;28;19976;-67
2022/09/24 14:20:52;;;;;;;;;;;20.20;89.10;;;;;;5033803;28;19986;-67
2022/09/24 14:23:19;;;;;;;;;;;20.20;96.50;;;;;;5032540;28;19940;-67
2022/09/24 14:25:46;;;;;;;;;;;20.40;94.20;;;;;;5038231;28;20426;-67
2022/09/24 14:28:12;;;;;;;;;;;20.60;93.10;;;;;;5037841;28;19995;-66
2022/09/24 14:30:46;;;;;;;;;;;20.70;92.50;;;;;;5023875;28;20399;-67
2022/09/24 14:33:15;;;;;;;;;;;20.60;91.90;;;;;;5036355;28;19923;-67
2022/09/24 14:35:43;;;;;;;;;;;20.50;94.40;;;;;;5038936;28;19986;-68
2022/09/24 14:38:21;;;;;;;;;;;20.80;95.70;;;;;;5040446;28;20055;-68